sensor_id;sensor_type;location;lat;lon;timestamp;pressure;altitude;pressure_sealevel;temperature;humidity
16821;BME280;8527;49.740;6.604;2023-04-07T00:03:16;99649.16;;;7.55;100.00
16821;BME280;8527;49.740;6.604;2023-04-07T00:08:20;99647.81;;;7.51;100.00
16821;BME280;8527;49.740;6.604;2023-04-07T00:13:18;99651.88;;;7.45;100.00
16821;BME280;8527;49.740;6.604;2023-04-07T00:18:22;99655.81;;;7.41;100.00
16821;BME280;8527;49.740;6.604;2023-04-07T00:23:24;99646.38;;;7.38;100.00
16821;BME280;8527;49.740;6.604;2023-04-07T00:28:23;99639.00;;;7.42;100.00
16821;BME280;8527;49.740;6.604;2023-04-07T00:33:21;99643.13;;;7.44;100.00
16821;BME280;8527;49.740;6.604;2023-04-07T00:38:25;99635.50;;;7.41;100.00
16821;BME280;8527;49.740;6.604;2023-04-07T00:43:26;99627.91;;;7.38;100.00
16821;BME280;8527;49.740;6.604;2023-04-07T00:48:25;99624.94;;;7.41;100.00
16821;BME280;8527;49.740;6.604;2023-04-07T00:53:26;99620.34;;;7.43;100.00
16821;BME280;8527;49.740;6.604;2023-04-07T00:58:24;99611.84;;;7.50;100.00
16821;BME280;8527;49.740;6.604;2023-04-07T01:03:29;99612.50;;;7.52;100.00
16821;BME280;8527;49.740;6.604;2023-04-07T01:08:48;99608.88;;;7.53;100.00
16821;BME280;8527;49.740;6.604;2023-04-07T01:13:51;99607.09;;;7.53;100.00
16821;BME280;8527;49.740;6.604;2023-04-07T01:18:54;99600.97;;;7.53;100.00
16821;BME280;8527;49.740;6.604;2023-04-07T01:24:09;99596.22;;;7.56;100.00
16821;BME280;8527;49.740;6.604;2023-04-07T01:29:32;99599.00;;;7.55;100.00
16821;BME280;8527;49.740;6.604;2023-04-07T01:34:32;99592.28;;;7.60;100.00
16821;BME280;8527;49.740;6.604;2023-04-07T01:39:31;99596.03;;;7.58;100.00
16821;BME280;8527;49.740;6.604;2023-04-07T01:44:36;99596.03;;;7.58;100.00
16821;BME280;8527;49.740;6.604;2023-04-07T01:49:35;99600.81;;;7.54;100.00
16821;BME280;8527;49.740;6.604;2023-04-07T01:54:34;99591.25;;;7.53;100.00
16821;BME280;8527;49.740;6.604;2023-04-07T01:59:36;99593.72;;;7.55;100.00
16821;BME280;8527;49.740;6.604;2023-04-07T02:04:44;99597.72;;;7.59;100.00
16821;BME280;8527;49.740;6.604;2023-04-07T02:09:47;99595.44;;;7.64;100.00
16821;BME280;8527;49.740;6.604;2023-04-07T02:14:49;99595.31;;;7.66;100.00
16821;BME280;8527;49.740;6.604;2023-04-07T02:19:50;99597.09;;;7.65;100.00
16821;BME280;8527;49.740;6.604;2023-04-07T02:24:48;99591.28;;;7.62;100.00
16821;BME280;8527;49.740;6.604;2023-04-07T02:29:49;99588.66;;;7.62;100.00
16821;BME280;8527;49.740;6.604;2023-04-07T02:34:49;99590.47;;;7.61;100.00
16821;BME280;8527;49.740;6.604;2023-04-07T02:39:47;99591.47;;;7.60;100.00
16821;BME280;8527;49.740;6.604;2023-04-07T02:44:45;99587.31;;;7.57;100.00
16821;BME280;8527;49.740;6.604;2023-04-07T02:49:46;99587.00;;;7.60;100.00
16821;BME280;8527;49.740;6.604;2023-04-07T02:54:45;99592.50;;;7.67;100.00
16821;BME280;8527;49.740;6.604;2023-04-07T02:59:43;99586.22;;;7.68;100.00
16821;BME280;8527;49.740;6.604;2023-04-07T03:04:42;99588.09;;;7.76;100.00
16821;BME280;8527;49.740;6.604;2023-04-07T03:09:42;99583.50;;;7.78;100.00
16821;BME280;8527;49.740;6.604;2023-04-07T03:14:41;99581.69;;;7.79;100.00
16821;BME280;8527;49.740;6.604;2023-04-07T03:19:39;99581.69;;;7.79;100.00
16821;BME280;8527;49.740;6.604;2023-04-07T03:24:38;99575.59;;;7.78;100.00
16821;BME280;8527;49.740;6.604;2023-04-07T03:29:40;99577.53;;;7.76;100.00
16821;BME280;8527;49.740;6.604;2023-04-07T03:34:38;99581.34;;;7.73;100.00
16821;BME280;8527;49.740;6.604;2023-04-07T03:39:37;99577.72;;;7.74;100.00
16821;BME280;8527;49.740;6.604;2023-04-07T03:44:35;99582.66;;;7.78;100.00
16821;BME280;8527;49.740;6.604;2023-04-07T03:49:36;99579.19;;;7.77;100.00
16821;BME280;8527;49.740;6.604;2023-04-07T03:54:35;99580.03;;;7.78;100.00
16821;BME280;8527;49.740;6.604;2023-04-07T03:59:34;99577.72;;;7.74;100.00
16821;BME280;8527;49.740;6.604;2023-04-07T04:04:32;99575.72;;;7.77;100.00
16821;BME280;8527;49.740;6.604;2023-04-07T04:09:33;99587.09;;;7.77;100.00
16821;BME280;8527;49.740;6.604;2023-04-07T04:14:32;99590.91;;;7.74;100.00
16821;BME280;8527;49.740;6.604;2023-04-07T04:19:30;99586.91;;;7.70;100.00
16821;BME280;8527;49.740;6.604;2023-04-07T04:24:34;99590.06;;;7.74;100.00
16821;BME280;8527;49.740;6.604;2023-04-07T04:29:34;99594.69;;;7.72;100.00
16821;BME280;8527;49.740;6.604;2023-04-07T04:34:33;99598.97;;;7.73;100.00
16821;BME280;8527;49.740;6.604;2023-04-07T04:39:31;99603.59;;;7.71;100.00
16821;BME280;8527;49.740;6.604;2023-04-07T04:44:36;99603.91;;;7.68;100.00
16821;BME280;8527;49.740;6.604;2023-04-07T04:49:34;99612.63;;;7.68;100.00
16821;BME280;8527;49.740;6.604;2023-04-07T04:54:32;99606.00;;;7.64;100.00
16821;BME280;8527;49.740;6.604;2023-04-07T04:59:37;99606.53;;;7.68;100.00
16821;BME280;8527;49.740;6.604;2023-04-07T05:04:38;99604.78;;;7.77;100.00
16821;BME280;8527;49.740;6.604;2023-04-07T05:09:37;99615.00;;;7.71;100.00
16821;BME280;8527;49.740;6.604;2023-04-07T05:14:41;99618.75;;;7.69;100.00
16821;BME280;8527;49.740;6.604;2023-04-07T05:19:42;99624.34;;;7.66;100.00
16821;BME280;8527;49.740;6.604;2023-04-07T05:24:41;99625.31;;;7.65;100.00
16821;BME280;8527;49.740;6.604;2023-04-07T05:29:42;99622.66;;;7.65;100.00
16821;BME280;8527;49.740;6.604;2023-04-07T05:34:43;99627.94;;;7.65;100.00
16821;BME280;8527;49.740;6.604;2023-04-07T05:39:41;99619.00;;;7.57;100.00
16821;BME280;8527;49.740;6.604;2023-04-07T05:44:42;99629.25;;;7.60;100.00
16821;BME280;8527;49.740;6.604;2023-04-07T05:49:41;99632.88;;;7.59;100.00
16821;BME280;8527;49.740;6.604;2023-04-07T05:54:45;99629.56;;;7.57;100.00
16821;BME280;8527;49.740;6.604;2023-04-07T05:59:46;99641.31;;;7.63;100.00
16821;BME280;8527;49.740;6.604;2023-04-07T06:04:47;99639.03;;;7.68;100.00
16821;BME280;8527;49.740;6.604;2023-04-07T06:09:46;99643.19;;;7.71;100.00
16821;BME280;8527;49.740;6.604;2023-04-07T06:14:51;99647.16;;;7.75;100.00
16821;BME280;8527;49.740;6.604;2023-04-07T06:19:49;99652.84;;;7.80;100.00
16821;BME280;8527;49.740;6.604;2023-04-07T06:24:48;99651.69;;;7.83;100.00
16821;BME280;8527;49.740;6.604;2023-04-07T06:29:53;99659.31;;;7.86;100.00
16821;BME280;8527;49.740;6.604;2023-04-07T06:34:51;99653.94;;;7.96;100.00
16821;BME280;8527;49.740;6.604;2023-04-07T06:39:51;99651.88;;;8.08;100.00
16821;BME280;8527;49.740;6.604;2023-04-07T06:44:49;99661.84;;;8.14;100.00
16821;BME280;8527;49.740;6.604;2023-04-07T06:49:50;99655.34;;;8.08;100.00
16821;BME280;8527;49.740;6.604;2023-04-07T06:54:48;99660.78;;;8.07;100.00
16821;BME280;8527;49.740;6.604;2023-04-07T06:59:47;99666.81;;;8.17;100.00
16821;BME280;8527;49.740;6.604;2023-04-07T07:04:53;99663.84;;;8.20;100.00
16821;BME280;8527;49.740;6.604;2023-04-07T07:09:53;99666.28;;;8.13;100.00
16821;BME280;8527;49.740;6.604;2023-04-07T07:14:51;99669.91;;;8.12;100.00
16821;BME280;8527;49.740;6.604;2023-04-07T07:19:49;99663.38;;;8.25;100.00
16821;BME280;8527;49.740;6.604;2023-04-07T07:24:50;99676.53;;;8.43;100.00
16821;BME280;8527;49.740;6.604;2023-04-07T07:29:49;99673.28;;;8.49;100.00
16821;BME280;8527;49.740;6.604;2023-04-07T07:34:47;99679.78;;;8.55;100.00
16821;BME280;8527;49.740;6.604;2023-04-07T07:39:45;99682.03;;;8.76;100.00
16821;BME280;8527;49.740;6.604;2023-04-07T07:44:46;99681.56;;;8.81;100.00
16821;BME280;8527;49.740;6.604;2023-04-07T07:49:45;99687.19;;;8.86;100.00
16821;BME280;8527;49.740;6.604;2023-04-07T07:54:44;99695.88;;;9.05;100.00
16821;BME280;8527;49.740;6.604;2023-04-07T07:59:42;99702.19;;;9.12;100.00
16821;BME280;8527;49.740;6.604;2023-04-07T08:04:43;99702.69;;;9.15;100.00
16821;BME280;8527;49.740;6.604;2023-04-07T08:09:42;99709.88;;;9.32;100.00
16821;BME280;8527;49.740;6.604;2023-04-07T08:14:40;99711.41;;;9.51;100.00
16821;BME280;8527;49.740;6.604;2023-04-07T08:19:39;99713.56;;;9.55;100.00
16821;BME280;8527;49.740;6.604;2023-04-07T08:24:40;99715.88;;;9.67;100.00
16821;BME280;8527;49.740;6.604;2023-04-07T08:29:38;99720.03;;;9.94;100.00
16821;BME280;8527;49.740;6.604;2023-04-07T08:34:36;99719.41;;;10.25;100.00
16821;BME280;8527;49.740;6.604;2023-04-07T08:39:38;99715.75;;;10.26;99.97
16821;BME280;8527;49.740;6.604;2023-04-07T08:44:39;99721.34;;;10.57;99.71
16821;BME280;8527;49.740;6.604;2023-04-07T08:49:44;99722.94;;;10.74;98.39
16821;BME280;8527;49.740;6.604;2023-04-07T08:54:45;99733.53;;;10.91;94.92
16821;BME280;8527;49.740;6.604;2023-04-07T08:59:47;99736.13;;;11.07;93.96
16821;BME280;8527;49.740;6.604;2023-04-07T09:04:48;99737.38;;;11.28;90.82
16821;BME280;8527;49.740;6.604;2023-04-07T09:09:46;99744.88;;;11.48;91.31
16821;BME280;8527;49.740;6.604;2023-04-07T09:14:48;99742.44;;;11.06;90.00
16821;BME280;8527;49.740;6.604;2023-04-07T09:19:47;99739.84;;;10.90;89.38
16821;BME280;8527;49.740;6.604;2023-04-07T09:24:45;99749.69;;;11.21;89.21
16821;BME280;8527;49.740;6.604;2023-04-07T09:29:47;99742.69;;;11.60;87.33
16821;BME280;8527;49.740;6.604;2023-04-07T09:34:45;99739.63;;;11.94;84.06
16821;BME280;8527;49.740;6.604;2023-04-07T09:39:51;99744.34;;;12.31;81.88
16821;BME280;8527;49.740;6.604;2023-04-07T09:44:52;99745.78;;;12.72;81.74
16821;BME280;8527;49.740;6.604;2023-04-07T09:49:52;99741.47;;;13.16;81.62
16821;BME280;8527;49.740;6.604;2023-04-07T09:54:51;99745.44;;;12.90;74.51
16821;BME280;8527;49.740;6.604;2023-04-07T09:59:55;99741.41;;;13.46;71.99
16821;BME280;8527;49.740;6.604;2023-04-07T10:04:55;99745.91;;;13.45;70.88
16821;BME280;8527;49.740;6.604;2023-04-07T10:09:54;99747.03;;;13.73;71.26
16821;BME280;8527;49.740;6.604;2023-04-07T10:14:55;99743.72;;;13.49;68.58
16821;BME280;8527;49.740;6.604;2023-04-07T10:19:57;99741.66;;;13.51;69.93
16821;BME280;8527;49.740;6.604;2023-04-07T10:24:58;99747.13;;;13.28;68.88
16821;BME280;8527;49.740;6.604;2023-04-07T10:30:04;99753.50;;;13.63;69.39
16821;BME280;8527;49.740;6.604;2023-04-07T10:35:09;99754.66;;;13.98;67.86
16821;BME280;8527;49.740;6.604;2023-04-07T10:40:28;99761.00;;;14.47;69.71
16821;BME280;8527;49.740;6.604;2023-04-07T10:45:56;99758.84;;;14.57;66.68
16821;BME280;8527;49.740;6.604;2023-04-07T10:51:13;99758.72;;;14.15;66.75
16821;BME280;8527;49.740;6.604;2023-04-07T10:56:13;99761.78;;;14.12;68.48
16821;BME280;8527;49.740;6.604;2023-04-07T11:01:20;99769.72;;;14.05;68.22
16821;BME280;8527;49.740;6.604;2023-04-07T11:06:18;99765.06;;;13.71;67.11
16821;BME280;8527;49.740;6.604;2023-04-07T11:11:34;99768.59;;;13.56;68.04
16821;BME280;8527;49.740;6.604;2023-04-07T11:16:40;99772.13;;;14.00;67.48
16821;BME280;8527;49.740;6.604;2023-04-07T11:21:40;99770.63;;;14.13;65.59
16821;BME280;8527;49.740;6.604;2023-04-07T11:26:39;99766.47;;;14.32;65.41
16821;BME280;8527;49.740;6.604;2023-04-07T11:31:46;99770.94;;;14.53;63.13
16821;BME280;8527;49.740;6.604;2023-04-07T11:36:47;99772.19;;;14.29;59.98
16821;BME280;8527;49.740;6.604;2023-04-07T11:41:47;99778.06;;;14.46;59.04
16821;BME280;8527;49.740;6.604;2023-04-07T11:46:56;99780.00;;;14.59;60.13
16821;BME280;8527;49.740;6.604;2023-04-07T11:51:59;99772.00;;;14.09;59.89
16821;BME280;8527;49.740;6.604;2023-04-07T11:56:58;99768.13;;;13.89;57.19
16821;BME280;8527;49.740;6.604;2023-04-07T12:01:59;99772.78;;;14.02;55.91
16821;BME280;8527;49.740;6.604;2023-04-07T12:07:06;99770.91;;;14.25;58.60
16821;BME280;8527;49.740;6.604;2023-04-07T12:12:06;99777.47;;;14.51;58.85
16821;BME280;8527;49.740;6.604;2023-04-07T12:17:19;99773.31;;;14.98;57.60
16821;BME280;8527;49.740;6.604;2023-04-07T12:22:18;99778.22;;;14.95;57.66
16821;BME280;8527;49.740;6.604;2023-04-07T12:27:23;99783.66;;;14.73;56.69
16821;BME280;8527;49.740;6.604;2023-04-07T12:32:24;99785.97;;;13.89;58.27
16821;BME280;8527;49.740;6.604;2023-04-07T12:37:23;99786.78;;;13.68;58.00
16821;BME280;8527;49.740;6.604;2023-04-07T12:42:21;99793.97;;;13.89;58.98
16821;BME280;8527;49.740;6.604;2023-04-07T12:47:20;99792.06;;;14.04;58.73
16821;BME280;8527;49.740;6.604;2023-04-07T12:52:21;99795.56;;;14.05;57.99
16821;BME280;8527;49.740;6.604;2023-04-07T12:57:20;99782.72;;;14.87;57.01
16821;BME280;8527;49.740;6.604;2023-04-07T13:02:18;99791.94;;;15.20;56.36
16821;BME280;8527;49.740;6.604;2023-04-07T13:07:21;99783.97;;;15.33;54.57
16821;BME280;8527;49.740;6.604;2023-04-07T13:12:20;99782.44;;;15.66;55.26
16821;BME280;8527;49.740;6.604;2023-04-07T13:17:18;99791.22;;;14.47;56.16
16821;BME280;8527;49.740;6.604;2023-04-07T13:22:17;99789.97;;;15.00;57.80
16821;BME280;8527;49.740;6.604;2023-04-07T13:27:24;99794.44;;;14.65;57.13
16821;BME280;8527;49.740;6.604;2023-04-07T13:32:22;99780.81;;;15.72;55.32
16821;BME280;8527;49.740;6.604;2023-04-07T13:37:22;99778.81;;;15.94;54.77
16821;BME280;8527;49.740;6.604;2023-04-07T13:42:20;99778.25;;;15.43;52.57
16821;BME280;8527;49.740;6.604;2023-04-07T13:47:24;99780.09;;;16.32;54.27
16821;BME280;8527;49.740;6.604;2023-04-07T13:52:25;99774.28;;;15.88;51.51
16821;BME280;8527;49.740;6.604;2023-04-07T13:57:34;99782.56;;;16.07;52.37
16821;BME280;8527;49.740;6.604;2023-04-07T14:02:36;99782.03;;;15.69;51.81
16821;BME280;8527;49.740;6.604;2023-04-07T14:07:37;99786.06;;;16.07;53.01
16821;BME280;8527;49.740;6.604;2023-04-07T14:12:42;99771.56;;;15.68;50.55
16821;BME280;8527;49.740;6.604;2023-04-07T14:17:43;99778.34;;;15.77;52.25
16821;BME280;8527;49.740;6.604;2023-04-07T14:22:41;99794.75;;;15.60;51.92
16821;BME280;8527;49.740;6.604;2023-04-07T14:27:40;99804.94;;;14.95;54.83
16821;BME280;8527;49.740;6.604;2023-04-07T14:32:38;99804.66;;;14.83;55.83
16821;BME280;8527;49.740;6.604;2023-04-07T14:37:40;99805.34;;;14.70;53.53
16821;BME280;8527;49.740;6.604;2023-04-07T14:42:41;99794.81;;;14.33;54.47
16821;BME280;8527;49.740;6.604;2023-04-07T14:47:39;99792.00;;;14.70;53.09
16821;BME280;8527;49.740;6.604;2023-04-07T14:52:44;99789.44;;;14.55;52.18
16821;BME280;8527;49.740;6.604;2023-04-07T14:57:42;99788.56;;;14.26;52.37
16821;BME280;8527;49.740;6.604;2023-04-07T15:02:46;99802.69;;;14.70;53.74
16821;BME280;8527;49.740;6.604;2023-04-07T15:07:54;99804.56;;;14.47;52.55
16821;BME280;8527;49.740;6.604;2023-04-07T15:12:53;99796.44;;;14.56;52.99
16821;BME280;8527;49.740;6.604;2023-04-07T15:17:55;99812.69;;;14.61;53.39
16821;BME280;8527;49.740;6.604;2023-04-07T15:23:01;99812.28;;;14.35;52.35
16821;BME280;8527;49.740;6.604;2023-04-07T15:28:00;99811.94;;;14.02;53.65
16821;BME280;8527;49.740;6.604;2023-04-07T15:32:59;99824.56;;;13.93;53.79
16821;BME280;8527;49.740;6.604;2023-04-07T15:38:07;99827.53;;;13.46;53.42
16821;BME280;8527;49.740;6.604;2023-04-07T15:43:06;99823.47;;;13.66;53.89
16821;BME280;8527;49.740;6.604;2023-04-07T15:48:07;99828.03;;;13.72;53.61
16821;BME280;8527;49.740;6.604;2023-04-07T15:53:08;99833.72;;;14.05;53.72
16821;BME280;8527;49.740;6.604;2023-04-07T15:58:10;99830.25;;;14.05;53.78
16821;BME280;8527;49.740;6.604;2023-04-07T16:03:08;99829.53;;;13.44;53.55
16821;BME280;8527;49.740;6.604;2023-04-07T16:08:09;99836.53;;;13.45;53.36
16821;BME280;8527;49.740;6.604;2023-04-07T16:13:07;99840.84;;;13.61;54.20
16821;BME280;8527;49.740;6.604;2023-04-07T16:18:07;99841.91;;;13.82;54.16
16821;BME280;8527;49.740;6.604;2023-04-07T16:23:11;99841.34;;;13.87;54.69
16821;BME280;8527;49.740;6.604;2023-04-07T16:28:10;99844.19;;;13.85;54.51
16821;BME280;8527;49.740;6.604;2023-04-07T16:33:09;99852.34;;;13.62;54.07
16821;BME280;8527;49.740;6.604;2023-04-07T16:38:10;99860.78;;;13.66;55.58
16821;BME280;8527;49.740;6.604;2023-04-07T16:43:13;99863.19;;;13.45;56.14
16821;BME280;8527;49.740;6.604;2023-04-07T16:48:12;99867.81;;;12.98;55.79
16821;BME280;8527;49.740;6.604;2023-04-07T16:53:10;99866.22;;;12.89;57.01
16821;BME280;8527;49.740;6.604;2023-04-07T16:58:14;99874.38;;;12.72;57.29
16821;BME280;8527;49.740;6.604;2023-04-07T17:08:32;99879.22;;;12.69;57.69
16821;BME280;8527;49.740;6.604;2023-04-07T17:13:33;99890.53;;;12.71;58.59
16821;BME280;8527;49.740;6.604;2023-04-07T17:18:34;99886.06;;;12.48;58.85
16821;BME280;8527;49.740;6.604;2023-04-07T17:23:35;99901.63;;;12.74;59.49
16821;BME280;8527;49.740;6.604;2023-04-07T17:28:39;99902.72;;;12.65;60.36
16821;BME280;8527;49.740;6.604;2023-04-07T17:33:37;99916.50;;;12.45;60.31
16821;BME280;8527;49.740;6.604;2023-04-07T17:38:36;99925.78;;;12.49;61.40
16821;BME280;8527;49.740;6.604;2023-04-07T17:43:34;99928.16;;;12.44;61.26
16821;BME280;8527;49.740;6.604;2023-04-07T17:48:35;99937.78;;;12.45;61.94
16821;BME280;8527;49.740;6.604;2023-04-07T17:53:34;99942.44;;;12.20;62.45
16821;BME280;8527;49.740;6.604;2023-04-07T17:58:32;99962.59;;;12.06;63.81
16821;BME280;8527;49.740;6.604;2023-04-07T18:03:31;99973.59;;;12.03;63.21
16821;BME280;8527;49.740;6.604;2023-04-07T18:08:32;99971.75;;;11.95;64.04
16821;BME280;8527;49.740;6.604;2023-04-07T18:13:30;99976.53;;;12.00;65.27
16821;BME280;8527;49.740;6.604;2023-04-07T18:18:32;99983.34;;;12.10;64.01
16821;BME280;8527;49.740;6.604;2023-04-07T18:23:33;100003.19;;;11.91;64.84
16821;BME280;8527;49.740;6.604;2023-04-07T18:28:33;100011.50;;;11.80;65.33
16821;BME280;8527;49.740;6.604;2023-04-07T18:33:31;100010.84;;;11.78;65.94
16821;BME280;8527;49.740;6.604;2023-04-07T18:38:33;100025.81;;;11.79;65.93
16821;BME280;8527;49.740;6.604;2023-04-07T18:43:32;100023.31;;;11.69;66.82
16821;BME280;8527;49.740;6.604;2023-04-07T18:48:31;100031.97;;;11.71;70.65
16821;BME280;8527;49.740;6.604;2023-04-07T18:53:32;100037.78;;;11.66;70.42
16821;BME280;8527;49.740;6.604;2023-04-07T18:58:31;100042.09;;;11.59;71.45
16821;BME280;8527;49.740;6.604;2023-04-07T19:03:30;100045.09;;;11.48;71.83
16821;BME280;8527;49.740;6.604;2023-04-07T19:08:28;100048.91;;;11.53;71.78
16821;BME280;8527;49.740;6.604;2023-04-07T19:13:32;100056.88;;;11.53;72.05
16821;BME280;8527;49.740;6.604;2023-04-07T19:18:31;100070.03;;;11.55;71.85
16821;BME280;8527;49.740;6.604;2023-04-07T19:23:29;100073.00;;;11.44;72.47
16821;BME280;8527;49.740;6.604;2023-04-07T19:28:30;100077.81;;;11.40;72.93
16821;BME280;8527;49.740;6.604;2023-04-07T19:33:29;100079.31;;;11.26;73.36
16821;BME280;8527;49.740;6.604;2023-04-07T19:38:34;100081.28;;;11.07;74.44
16821;BME280;8527;49.740;6.604;2023-04-07T19:43:43;100080.09;;;11.02;73.66
16821;BME280;8527;49.740;6.604;2023-04-07T19:48:41;100091.88;;;10.99;75.25
16821;BME280;8527;49.740;6.604;2023-04-07T19:53:40;100095.38;;;11.00;75.59
16821;BME280;8527;49.740;6.604;2023-04-07T19:58:41;100102.66;;;10.97;75.07
16821;BME280;8527;49.740;6.604;2023-04-07T20:03:40;100106.81;;;10.92;76.30
16821;BME280;8527;49.740;6.604;2023-04-07T20:08:38;100109.78;;;10.89;75.76
16821;BME280;8527;49.740;6.604;2023-04-07T20:13:37;100111.13;;;10.93;75.37
16821;BME280;8527;49.740;6.604;2023-04-07T20:18:38;100116.38;;;10.84;76.29
16821;BME280;8527;49.740;6.604;2023-04-07T20:23:36;100124.53;;;10.83;77.89
16821;BME280;8527;49.740;6.604;2023-04-07T20:28:35;100122.31;;;10.62;78.85
16821;BME280;8527;49.740;6.604;2023-04-07T20:33:34;100133.88;;;10.52;79.65
16821;BME280;8527;49.740;6.604;2023-04-07T20:38:35;100142.97;;;10.50;77.78
16821;BME280;8527;49.740;6.604;2023-04-07T20:43:33;100138.31;;;10.52;78.32
16821;BME280;8527;49.740;6.604;2023-04-07T20:48:32;100139.16;;;10.52;77.52
16821;BME280;8527;49.740;6.604;2023-04-07T20:53:30;100146.59;;;10.49;76.98
16821;BME280;8527;49.740;6.604;2023-04-07T20:58:37;100151.81;;;10.40;77.40
16821;BME280;8527;49.740;6.604;2023-04-07T21:03:48;100157.41;;;10.29;78.69
16821;BME280;8527;49.740;6.604;2023-04-07T21:08:49;100158.78;;;9.89;81.98
16821;BME280;8527;49.740;6.604;2023-04-07T21:13:50;100164.19;;;9.79;84.12
16821;BME280;8527;49.740;6.604;2023-04-07T21:18:49;100162.59;;;9.68;85.38
16821;BME280;8527;49.740;6.604;2023-04-07T21:23:48;100164.56;;;9.66;86.37
16821;BME280;8527;49.740;6.604;2023-04-07T21:28:50;100168.59;;;9.70;86.37
16821;BME280;8527;49.740;6.604;2023-04-07T21:33:54;100162.44;;;9.51;88.58
16821;BME280;8527;49.740;6.604;2023-04-07T21:38:52;100153.22;;;9.37;90.09
16821;BME280;8527;49.740;6.604;2023-04-07T21:43:53;100161.16;;;9.19;92.25
16821;BME280;8527;49.740;6.604;2023-04-07T21:48:51;100153.88;;;9.21;92.53
16821;BME280;8527;49.740;6.604;2023-04-07T21:53:50;100151.81;;;9.15;92.88
16821;BME280;8527;49.740;6.604;2023-04-07T21:58:48;100150.38;;;9.21;92.98
16821;BME280;8527;49.740;6.604;2023-04-07T22:03:49;100160.94;;;9.31;92.27
16821;BME280;8527;49.740;6.604;2023-04-07T22:08:48;100162.34;;;9.07;94.23
16821;BME280;8527;49.740;6.604;2023-04-07T22:13:48;100158.94;;;9.14;95.67
16821;BME280;8527;49.740;6.604;2023-04-07T22:18:49;100162.44;;;9.33;95.14
16821;BME280;8527;49.740;6.604;2023-04-07T22:23:50;100158.59;;;9.46;94.03
16821;BME280;8527;49.740;6.604;2023-04-07T22:28:50;100168.13;;;9.38;94.19
16821;BME280;8527;49.740;6.604;2023-04-07T22:33:53;100170.91;;;9.37;94.83
16821;BME280;8527;49.740;6.604;2023-04-07T22:38:52;100170.59;;;9.22;95.57
16821;BME280;8527;49.740;6.604;2023-04-07T22:43:50;100174.41;;;9.09;96.59
16821;BME280;8527;49.740;6.604;2023-04-07T22:48:51;100183.59;;;9.15;96.82
16821;BME280;8527;49.740;6.604;2023-04-07T22:53:52;100167.50;;;9.26;94.65
16821;BME280;8527;49.740;6.604;2023-04-07T22:58:53;100173.44;;;9.38;93.13
16821;BME280;8527;49.740;6.604;2023-04-07T23:04:01;100177.78;;;9.48;92.29
16821;BME280;8527;49.740;6.604;2023-04-07T23:09:00;100178.84;;;9.37;91.29
16821;BME280;8527;49.740;6.604;2023-04-07T23:14:08;100183.41;;;9.45;90.30
16821;BME280;8527;49.740;6.604;2023-04-07T23:19:09;100183.94;;;9.48;90.35
16821;BME280;8527;49.740;6.604;2023-04-07T23:24:10;100190.09;;;9.49;89.70
16821;BME280;8527;49.740;6.604;2023-04-07T23:29:14;100195.66;;;9.46;89.67
16821;BME280;8527;49.740;6.604;2023-04-07T23:34:18;100204.53;;;9.36;91.39
16821;BME280;8527;49.740;6.604;2023-04-07T23:39:16;100197.75;;;9.24;91.38
16821;BME280;8527;49.740;6.604;2023-04-07T23:44:15;100200.31;;;9.15;92.57
16821;BME280;8527;49.740;6.604;2023-04-07T23:49:16;100206.84;;;9.21;92.03
16821;BME280;8527;49.740;6.604;2023-04-07T23:54:17;100220.06;;;9.21;91.55
16821;BME280;8527;49.740;6.604;2023-04-07T23:59:16;100215.06;;;9.18;91.48
